Time;durP1;ratioP1;P1;durP2;ratioP2;P2;SDS_P1;SDS_P2;PMS_P1;PMS_P2;Temp;Humidity;BMP_temperature;BMP_pressure;BME280_temperature;BME280_humidity;BME280_pressure;Samples;Min_cycle;Max_cycle;Signal;HPM_P1;HPM_P2
2023/08/23 00:03:09;;;;;;;10.77;7.70;;;;;;;18.07;72.07;100812.16;10129115;29;21190;-77
2023/08/23 00:08:12;;;;;;;11.85;7.68;;;;;;;18.04;72.01;100807.00;10126888;28;20058;-77
2023/08/23 00:13:16;;;;;;;11.18;8.02;;;;;;;18.02;71.88;100810.91;10117059;28;20056;-77
2023/08/23 00:18:19;;;;;;;10.82;7.50;;;;;;;17.86;71.64;100808.94;10126985;28;20564;-76
2023/08/23 00:23:22;;;;;;;15.27;8.40;;;;;;;17.91;71.93;100807.44;10130414;29;20045;-76
2023/08/23 00:28:26;;;;;;;11.43;9.45;;;;;;;17.82;71.88;100796.69;10121328;29;20059;-76
2023/08/23 00:33:29;;;;;;;10.05;8.57;;;;;;;17.79;71.73;100806.00;10136986;29;20063;-75
2023/08/23 00:38:32;;;;;;;11.63;8.77;;;;;;;17.82;72.20;100796.69;10122961;28;20106;-76
2023/08/23 00:43:36;;;;;;;10.68;8.63;;;;;;;17.84;71.62;100809.09;10134527;28;20055;-76
2023/08/23 00:48:40;;;;;;;12.25;8.60;;;;;;;17.73;71.67;100803.09;10133376;29;20615;-76
2023/08/23 00:53:43;;;;;;;12.55;10.30;;;;;;;17.73;72.35;100803.94;10117574;29;20052;-75
2023/08/23 00:58:48;;;;;;;13.45;10.55;;;;;;;17.67;72.22;100807.31;10120214;29;21154;-75
2023/08/23 01:03:51;;;;;;;14.68;10.68;;;;;;;17.48;73.26;100811.09;10119760;28;20091;-76
2023/08/23 01:09:03;;;;;;;13.50;10.68;;;;;;;17.40;73.66;100814.59;10125936;28;20055;-76
2023/08/23 01:14:15;;;;;;;15.23;9.52;;;;;;;17.30;73.90;100812.97;10136805;29;20048;-76
2023/08/23 01:19:37;;;;;;;19.33;10.30;;;;;;;17.31;74.01;100814.72;10134046;29;20505;-76
2023/08/23 01:24:41;;;;;;;17.15;9.73;;;;;;;17.30;74.13;100815.69;10128674;29;20051;-76
2023/08/23 01:29:45;;;;;;;11.52;9.73;;;;;;;17.25;74.24;100811.59;10122859;28;20051;-76
2023/08/23 01:34:54;;;;;;;12.70;9.45;;;;;;;17.29;73.93;100820.28;10123059;28;20165;-76
2023/08/23 01:40:00;;;;;;;16.67;10.30;;;;;;;17.21;73.41;100822.94;10128613;28;20059;-76
2023/08/23 01:45:07;;;;;;;15.32;11.43;;;;;;;17.19;73.93;100812.22;10137769;29;20166;-76
2023/08/23 01:50:10;;;;;;;13.00;10.80;;;;;;;17.06;74.09;100810.88;10117627;29;20051;-75
2023/08/23 01:55:20;;;;;;;15.10;12.45;;;;;;;16.96;74.52;100798.25;10127676;29;20413;-75
2023/08/23 02:00:23;;;;;;;18.27;12.18;;;;;;;17.03;74.33;100801.19;10118571;28;20060;-76
2023/08/23 02:05:30;;;;;;;15.07;11.77;;;;;;;17.00;74.19;100804.22;10123622;28;20048;-74
2023/08/23 02:10:35;;;;;;;15.25;12.45;;;;;;;16.95;73.92;100807.41;10121515;29;20056;-75
2023/08/23 02:15:39;;;;;;;14.88;10.75;;;;;;;16.96;73.36;100800.13;10127255;29;20048;-75
2023/08/23 02:20:42;;;;;;;15.73;11.13;;;;;;;16.86;73.64;100811.06;10118489;29;20127;-75
2023/08/23 02:25:49;;;;;;;15.00;11.90;;;;;;;16.82;73.32;100817.81;10118317;28;20083;-75
2023/08/23 02:37:39;;;;;;;16.88;14.98;;;;;;;16.09;77.56;100823.22;10127095;29;20060;-74
2023/08/23 02:42:43;;;;;;;14.85;13.05;;;;;;;16.19;76.49;100818.59;10125620;29;20138;-76
2023/08/23 02:47:46;;;;;;;18.17;15.43;;;;;;;16.21;76.29;100808.47;10124304;29;20052;-76
2023/08/23 02:52:49;;;;;;;20.33;14.40;;;;;;;16.30;76.20;100807.59;10123787;28;20043;-76
2023/08/23 02:57:53;;;;;;;16.88;14.65;;;;;;;16.18;75.98;100795.22;10128270;29;20043;-76
2023/08/23 03:02:56;;;;;;;16.60;13.35;;;;;;;16.34;75.80;100797.28;10115665;29;20052;-75
2023/08/23 03:07:59;;;;;;;16.63;12.35;;;;;;;16.39;75.58;100784.13;10126418;29;20044;-76
2023/08/23 03:13:04;;;;;;;16.15;13.30;;;;;;;16.33;75.39;100782.03;10120809;29;20048;-76
2023/08/23 03:18:07;;;;;;;15.40;11.65;;;;;;;16.28;75.14;100778.94;10114460;28;20119;-76
2023/08/23 03:23:09;;;;;;;14.48;12.57;;;;;;;16.36;74.98;100779.00;10117491;28;20079;-75
2023/08/23 03:28:14;;;;;;;17.85;12.75;;;;;;;16.31;74.60;100781.31;10118831;29;20535;-76
2023/08/23 03:33:17;;;;;;;18.85;13.38;;;;;;;16.25;74.41;100781.91;10120578;29;20584;-76
2023/08/23 03:38:21;;;;;;;13.60;11.07;;;;;;;16.18;74.70;100783.50;10117025;29;20524;-76
2023/08/23 03:43:25;;;;;;;16.75;13.18;;;;;;;16.18;74.55;100775.38;10117212;29;20106;-75
2023/08/23 03:48:28;;;;;;;13.50;11.48;;;;;;;16.15;74.07;100784.66;10129594;28;20048;-75
2023/08/23 03:53:33;;;;;;;14.40;12.13;;;;;;;16.08;74.38;100784.44;10121200;29;20044;-75
2023/08/23 03:58:38;;;;;;;19.17;12.25;;;;;;;16.08;74.56;100775.44;10108652;29;20055;-76
2023/08/23 04:03:41;;;;;;;15.60;11.93;;;;;;;16.04;74.59;100776.75;10117186;29;20435;-76
2023/08/23 04:08:45;;;;;;;16.65;12.65;;;;;;;16.00;75.14;100783.47;10111627;29;20066;-76
2023/08/23 04:13:51;;;;;;;14.65;11.80;;;;;;;16.00;75.00;100773.47;10121220;28;20060;-76
2023/08/23 04:18:54;;;;;;;15.50;12.10;;;;;;;15.86;74.92;100772.13;10116525;29;20111;-74
2023/08/23 04:23:57;;;;;;;14.88;11.63;;;;;;;15.85;74.95;100761.44;10111940;29;20041;-76
2023/08/23 04:29:02;;;;;;;11.27;9.98;;;;;;;15.71;75.06;100760.06;10114040;29;20044;-74
2023/08/23 04:34:05;;;;;;;11.63;10.23;;;;;;;15.55;76.20;100765.25;10125498;29;20055;-74
2023/08/23 04:39:10;;;;;;;15.02;12.25;;;;;;;15.67;76.19;100764.09;10124402;29;20512;-76
2023/08/23 04:44:14;;;;;;;16.40;13.45;;;;;;;15.58;76.50;100770.41;10112622;29;20056;-74
2023/08/23 04:49:17;;;;;;;16.38;14.18;;;;;;;15.52;77.05;100779.09;10109107;29;20053;-76
2023/08/23 04:54:20;;;;;;;17.67;12.57;;;;;;;15.60;77.17;100769.22;10123214;29;20436;-77
2023/08/23 04:59:24;;;;;;;16.30;12.27;;;;;;;15.74;76.79;100778.72;10122675;29;20039;-76
2023/08/23 05:04:27;;;;;;;23.38;14.02;;;;;;;15.65;76.08;100779.63;10130237;29;20052;-76
2023/08/23 05:09:30;;;;;;;19.08;14.00;;;;;;;15.63;76.79;100796.03;10121967;28;20115;-76
2023/08/23 05:14:36;;;;;;;16.05;11.52;;;;;;;16.00;76.61;100803.28;10134110;28;20147;-77
2023/08/23 05:19:39;;;;;;;13.07;10.25;;;;;;;16.53;74.62;100812.59;10126627;29;20056;-75
2023/08/23 05:24:42;;;;;;;12.95;9.75;;;;;;;16.81;72.85;100797.97;10130931;29;20060;-77
2023/08/23 05:29:47;;;;;;;12.07;10.73;;;;;;;16.75;72.54;100804.00;10137442;28;20768;-76
2023/08/23 05:34:50;;;;;;;13.93;9.57;;;;;;;16.86;72.88;100800.19;10126915;28;20049;-77
2023/08/23 05:39:53;;;;;;;13.30;10.70;;;;;;;17.00;72.05;100823.22;10129200;28;20540;-76
2023/08/23 05:44:58;;;;;;;16.75;14.20;;;;;;;17.11;71.67;100817.53;10134557;29;21685;-76
2023/08/23 05:50:01;;;;;;;14.77;11.85;;;;;;;17.10;72.26;100813.13;10125454;29;20131;-77
2023/08/23 05:55:07;;;;;;;14.25;11.57;;;;;;;17.03;72.64;100831.03;10128936;29;20052;-75
2023/08/23 06:00:13;;;;;;;20.70;14.00;;;;;;;17.08;73.05;100833.31;10125071;29;20056;-76
2023/08/23 06:05:18;;;;;;;16.77;14.25;;;;;;;17.12;73.55;100824.69;10126718;28;20483;-76
2023/08/23 06:10:21;;;;;;;20.40;16.15;;;;;;;17.39;73.58;100820.19;10126622;28;20158;-77
2023/08/23 06:15:26;;;;;;;26.23;16.33;;;;;;;17.60;72.79;100822.53;10129090;29;20062;-77
2023/08/23 06:20:29;;;;;;;24.63;18.45;;;;;;;17.67;72.72;100819.03;10129125;29;21150;-73
2023/08/23 06:25:32;;;;;;;20.77;16.65;;;;;;;17.60;73.12;100828.81;10126019;29;20756;-76
2023/08/23 06:30:38;;;;;;;29.08;22.80;;;;;;;17.39;73.74;100812.91;10127557;28;20171;-76
2023/08/23 06:35:41;;;;;;;18.67;13.80;;;;;;;17.87;74.21;100825.06;10133434;28;20193;-76
2023/08/23 06:40:44;;;;;;;22.75;19.05;;;;;;;18.51;71.89;100822.84;10131469;29;20052;-74
2023/08/23 06:45:48;;;;;;;27.90;22.15;;;;;;;18.73;70.93;100829.53;10124123;29;20059;-75
2023/08/23 06:50:51;;;;;;;19.67;15.38;;;;;;;18.86;70.38;100836.38;10122824;29;20409;-74
2023/08/23 06:55:54;;;;;;;20.05;17.30;;;;;;;19.27;69.29;100837.25;10130718;29;20056;-75
2023/08/23 07:00:58;;;;;;;22.92;19.08;;;;;;;19.38;67.93;100825.16;10127236;28;20413;-74
2023/08/23 07:06:03;;;;;;;21.35;19.02;;;;;;;19.81;66.98;100834.00;10124995;29;20424;-75
2023/08/23 07:11:05;;;;;;;26.25;19.63;;;;;;;19.90;66.14;100841.97;10125349;29;20044;-75
2023/08/23 07:16:10;;;;;;;32.63;22.50;;;;;;;20.05;64.56;100839.38;10125636;29;20064;-75
2023/08/23 07:21:13;;;;;;;28.38;21.40;;;;;;;20.24;64.33;100832.66;10124742;29;20115;-76
2023/08/23 07:26:17;;;;;;;31.25;20.77;;;;;;;20.06;64.78;100837.50;10130705;28;20112;-76
2023/08/23 07:31:21;;;;;;;28.40;20.33;;;;;;;19.40;66.98;100836.75;10125892;29;20071;-76
2023/08/23 07:36:24;;;;;;;30.80;21.00;;;;;;;19.92;66.52;100840.94;10125739;29;20052;-76
2023/08/23 07:41:27;;;;;;;30.60;19.48;;;;;;;20.21;64.73;100838.44;10127414;29;20137;-76
2023/08/23 07:46:31;;;;;;;26.52;19.45;;;;;;;20.66;63.05;100845.09;10126059;29;20051;-76
2023/08/23 07:51:34;;;;;;;22.75;16.75;;;;;;;20.98;62.60;100854.06;10127890;28;20050;-76
2023/08/23 07:56:37;;;;;;;25.85;14.73;;;;;;;21.34;62.81;100851.63;10129884;28;20054;-76
2023/08/23 08:01:41;;;;;;;21.13;16.38;;;;;;;21.65;60.14;100861.59;10124166;29;20186;-75
2023/08/23 08:06:44;;;;;;;18.58;12.45;;;;;;;22.00;58.96;100861.97;10124287;29;20058;-75
2023/08/23 08:11:47;;;;;;;12.55;10.70;;;;;;;21.53;60.48;100874.00;10124468;29;20048;-76
2023/08/23 08:16:51;;;;;;;17.42;12.32;;;;;;;21.48;60.76;100871.84;10124414;29;20052;-74
2023/08/23 08:21:54;;;;;;;15.93;11.55;;;;;;;21.84;59.00;100882.13;10131243;28;20055;-74
2023/08/23 08:27:02;;;;;;;12.60;9.38;;;;;;;21.26;60.78;100886.38;10127331;29;20059;-74
2023/08/23 08:32:06;;;;;;;13.18;9.05;;;;;;;21.77;59.69;100892.94;10127684;29;20045;-75
2023/08/23 08:37:09;;;;;;;9.48;7.15;;;;;;;22.01;58.75;100882.78;10138823;29;20059;-76
2023/08/23 08:42:12;;;;;;;11.32;6.93;;;;;;;21.61;58.88;100888.47;10134450;28;20048;-76
2023/08/23 08:47:16;;;;;;;8.20;5.70;;;;;;;22.23;56.89;100875.53;10131407;28;20055;-75
2023/08/23 08:52:21;;;;;;;10.52;5.22;;;;;;;21.96;57.36;100875.13;10141123;28;20058;-77
2023/08/23 08:57:25;;;;;;;9.45;6.10;;;;;;;22.33;55.15;100876.09;10141066;29;20119;-76
2023/08/23 09:02:32;;;;;;;10.13;5.53;;;;;;;23.13;53.59;100883.41;10140427;29;20056;-76
2023/08/23 09:07:36;;;;;;;10.82;7.00;;;;;;;23.44;53.17;100887.72;10136744;28;20040;-76
2023/08/23 09:12:39;;;;;;;10.23;5.68;;;;;;;22.68;54.67;100879.97;10134460;28;20052;-77
2023/08/23 09:17:43;;;;;;;10.15;6.80;;;;;;;23.09;53.91;100884.84;10134468;29;20055;-76
2023/08/23 09:22:52;;;;;;;6.88;5.47;;;;;;;23.64;51.90;100879.66;10131703;29;20525;-76
2023/08/23 09:27:55;;;;;;;6.95;4.82;;;;;;;22.45;53.74;100874.59;10120039;29;20059;-74
2023/08/23 09:33:00;;;;;;;9.32;5.57;;;;;;;22.52;53.36;100872.81;10127296;29;20194;-76
2023/08/23 09:38:04;;;;;;;9.50;5.90;;;;;;;22.89;53.03;100887.34;10133743;28;21085;-76
2023/08/23 09:43:08;;;;;;;7.47;5.28;;;;;;;23.09;52.43;100876.63;10133035;28;20047;-76
2023/08/23 09:48:13;;;;;;;7.90;5.38;;;;;;;23.75;50.72;100873.66;10138399;28;20055;-75
2023/08/23 09:53:22;;;;;;;8.15;5.10;;;;;;;23.69;51.48;100877.16;10138804;29;20055;-77
2023/08/23 09:58:26;;;;;;;11.30;5.13;;;;;;;23.42;52.13;100871.47;10137965;29;20052;-77
2023/08/23 10:03:30;;;;;;;6.72;4.38;;;;;;;24.23;49.83;100860.03;10128603;29;20373;-76
2023/08/23 10:08:34;;;;;;;7.07;4.57;;;;;;;23.87;48.94;100874.81;10127641;28;20056;-76
2023/08/23 10:13:38;;;;;;;5.32;3.53;;;;;;;23.82;49.23;100871.81;10129153;28;20052;-76
2023/08/23 10:18:44;;;;;;;9.05;4.53;;;;;;;24.59;48.45;100860.88;10127722;29;20056;-77
2023/08/23 10:23:48;;;;;;;7.05;4.47;;;;;;;25.94;45.71;100854.25;10129547;29;20140;-76
2023/08/23 10:28:53;;;;;;;6.38;4.85;;;;;;;24.96;46.49;100854.00;10123595;29;20043;-77
2023/08/23 10:33:58;;;;;;;8.30;4.50;;;;;;;23.25;49.53;100856.34;10126960;28;20059;-77
2023/08/23 10:39:04;;;;;;;5.07;3.38;;;;;;;24.69;47.57;100844.84;10137086;28;20051;-75
2023/08/23 10:44:15;;;;;;;4.57;3.00;;;;;;;24.82;47.54;100839.41;10129858;29;20075;-76
2023/08/23 10:49:21;;;;;;;6.77;3.77;;;;;;;26.33;44.59;100835.13;10124533;29;20076;-76
2023/08/23 10:54:25;;;;;;;5.72;3.78;;;;;;;24.88;46.23;100835.81;10124519;29;20056;-76
2023/08/23 10:59:28;;;;;;;5.35;2.40;;;;;;;25.66;44.25;100831.69;10128910;29;20055;-76
2023/08/23 11:04:32;;;;;;;5.70;2.17;;;;;;;27.82;41.06;100820.75;10124898;28;20044;-76
2023/08/23 11:09:36;;;;;;;3.83;2.10;;;;;;;27.79;38.37;100815.69;10123833;29;20552;-76
2023/08/23 11:14:38;;;;;;;3.53;2.13;;;;;;;28.40;39.62;100821.38;10131557;29;20633;-76
2023/08/23 11:19:43;;;;;;;6.18;2.65;;;;;;;29.03;38.51;100829.22;10124732;29;20543;-75
2023/08/23 11:24:46;;;;;;;2.95;2.00;;;;;;;28.80;38.75;100813.44;10124233;29;20056;-76
2023/08/23 11:29:49;;;;;;;3.90;1.90;;;;;;;28.76;40.16;100814.13;10128616;28;20405;-76
2023/08/23 11:34:55;;;;;;;2.75;1.60;;;;;;;29.85;37.89;100808.31;10124982;29;20057;-76
2023/08/23 11:39:58;;;;;;;1.92;1.77;;;;;;;29.65;37.48;100804.00;10127983;29;20052;-75
2023/08/23 11:45:03;;;;;;;5.75;2.00;;;;;;;31.09;36.20;100794.72;10130121;29;20057;-76
2023/08/23 11:50:09;;;;;;;2.35;1.50;;;;;;;30.62;35.83;100799.69;10126167;29;20593;-74
2023/08/23 11:55:11;;;;;;;3.03;1.20;;;;;;;31.74;33.68;100798.88;10129538;29;20059;-77
2023/08/23 12:00:15;;;;;;;5.25;1.65;;;;;;;30.78;35.32;100801.69;10126204;28;20043;-76
2023/08/23 12:05:20;;;;;;;6.82;1.80;;;;;;;32.34;32.68;100793.56;10126025;28;20062;-77
2023/08/23 12:10:22;;;;;;;2.30;1.48;;;;;;;31.71;33.54;100793.00;10125338;29;20148;-76
2023/08/23 12:15:28;;;;;;;3.75;1.60;;;;;;;30.30;34.86;100794.59;10127175;29;20063;-77
2023/08/23 12:20:32;;;;;;;2.10;1.27;;;;;;;30.94;34.50;100800.03;10126407;29;20539;-76
2023/08/23 12:25:35;;;;;;;2.55;1.25;;;;;;;30.69;34.24;100794.84;10123594;29;20051;-76
2023/08/23 12:30:39;;;;;;;3.42;1.75;;;;;;;30.15;34.88;100800.69;10126408;28;20505;-77
2023/08/23 12:35:43;;;;;;;2.33;1.40;;;;;;;29.17;36.30;100791.16;10121465;29;20043;-76
2023/08/23 12:40:46;;;;;;;1.55;1.40;;;;;;;31.40;33.31;100781.38;10127425;29;20052;-76
2023/08/23 12:45:48;;;;;;;1.55;1.40;;;;;;;30.18;35.14;100778.03;10126312;29;20697;-75
2023/08/23 12:50:53;;;;;;;3.28;1.33;;;;;;;27.71;39.15;100779.28;10121228;29;20140;-77
2023/08/23 12:55:55;;;;;;;1.42;1.33;;;;;;;29.17;36.17;100773.75;10128061;28;20052;-76
2023/08/23 13:00:58;;;;;;;3.85;1.83;;;;;;;29.41;37.04;100777.38;10126776;28;20049;-77
2023/08/23 13:06:05;;;;;;;2.03;1.58;;;;;;;30.16;36.17;100771.06;10125092;29;20099;-76
2023/08/23 13:11:08;;;;;;;4.97;1.40;;;;;;;30.89;33.43;100756.41;10121592;29;20060;-76
2023/08/23 13:16:11;;;;;;;1.58;1.33;;;;;;;31.85;32.59;100752.63;10121432;29;20047;-76
2023/08/23 13:21:15;;;;;;;2.15;1.10;;;;;;;31.01;33.33;100747.16;10126253;28;20115;-75
2023/08/23 13:26:18;;;;;;;1.35;1.20;;;;;;;31.47;33.69;100747.91;10130990;28;21180;-75
2023/08/23 13:31:23;;;;;;;3.63;1.45;;;;;;;30.95;33.40;100739.84;10128206;29;20039;-76
2023/08/23 13:36:27;;;;;;;4.88;1.30;;;;;;;29.52;34.55;100738.63;10128007;29;20079;-74
2023/08/23 13:41:30;;;;;;;2.65;1.05;;;;;;;30.73;34.60;100731.44;10129434;29;20052;-74
2023/08/23 13:46:33;;;;;;;2.65;1.58;;;;;;;31.94;32.42;100737.19;10131351;29;20056;-75
2023/08/23 13:51:37;;;;;;;2.72;1.30;;;;;;;30.48;34.44;100730.69;10124783;28;20445;-76
2023/08/23 13:56:40;;;;;;;3.47;1.25;;;;;;;31.42;33.25;100722.84;10125151;29;20528;-75
2023/08/23 14:01:43;;;;;;;1.75;1.40;;;;;;;32.30;32.67;100720.13;10128879;29;20475;-75
2023/08/23 14:06:47;;;;;;;3.15;1.20;;;;;;;31.82;32.04;100722.59;10127804;28;20728;-75
2023/08/23 14:11:53;;;;;;;1.45;1.27;;;;;;;31.31;32.89;100731.03;10125440;28;20059;-75
2023/08/23 14:16:56;;;;;;;1.35;1.02;;;;;;;30.15;33.86;100716.75;10125460;29;20515;-74
2023/08/23 14:22:00;;;;;;;1.95;0.90;;;;;;;29.19;35.50;100722.63;10122812;29;20095;-75
2023/08/23 14:27:04;;;;;;;1.92;1.00;;;;;;;29.41;33.92;100702.66;10138366;29;20988;-75
2023/08/23 14:32:07;;;;;;;2.10;1.30;;;;;;;30.10;33.52;100700.00;10137534;29;20056;-74
2023/08/23 14:37:11;;;;;;;1.40;1.27;;;;;;;29.79;35.01;100703.00;10136923;28;20130;-76
2023/08/23 14:42:14;;;;;;;2.90;1.00;;;;;;;29.85;34.20;100698.41;10123645;29;20047;-74
2023/08/23 14:47:19;;;;;;;1.20;0.90;;;;;;;29.85;34.14;100694.78;10131519;29;20055;-74
2023/08/23 14:52:23;;;;;;;4.03;1.33;;;;;;;30.38;33.71;100677.84;10132979;28;20056;-75
2023/08/23 14:57:26;;;;;;;2.22;1.35;;;;;;;30.11;34.67;100688.66;10134632;29;20052;-74
2023/08/23 15:02:29;;;;;;;2.08;1.13;;;;;;;29.63;33.61;100692.69;10126274;28;20131;-73
2023/08/23 15:07:35;;;;;;;3.15;1.27;;;;;;;30.26;34.12;100690.94;10125312;28;20553;-75
2023/08/23 15:12:37;;;;;;;5.50;1.08;;;;;;;31.22;33.18;100682.63;10129347;28;20547;-75
2023/08/23 15:17:40;;;;;;;1.60;1.20;;;;;;;28.79;36.92;100687.34;10133262;29;20068;-75
2023/08/23 15:22:45;;;;;;;1.30;1.20;;;;;;;28.75;35.76;100691.66;10132014;29;20044;-75
2023/08/23 15:27:50;;;;;;;1.67;1.10;;;;;;;29.03;36.49;100687.38;10134136;29;20052;-74
2023/08/23 15:32:53;;;;;;;4.32;0.95;;;;;;;30.56;35.47;100682.34;10130794;28;20052;-74
2023/08/23 15:37:58;;;;;;;1.55;1.13;;;;;;;30.78;33.38;100685.22;10130882;28;20609;-75
2023/08/23 15:43:01;;;;;;;2.70;1.10;;;;;;;30.02;33.73;100677.13;10131350;29;20421;-76
2023/08/23 15:48:04;;;;;;;2.72;1.52;;;;;;;28.23;36.48;100674.81;10128063;29;20044;-75
2023/08/23 15:53:09;;;;;;;2.78;0.90;;;;;;;29.22;34.36;100672.38;10122915;29;20056;-74
2023/08/23 15:58:12;;;;;;;1.42;1.10;;;;;;;29.12;34.97;100667.44;10118102;28;20444;-75
2023/08/23 16:03:15;;;;;;;1.05;0.95;;;;;;;29.32;35.78;100664.31;10124531;28;20104;-75
2023/08/23 16:08:20;;;;;;;1.15;0.93;;;;;;;28.71;35.15;100660.03;10128188;29;20052;-73
2023/08/23 16:13:23;;;;;;;2.63;1.08;;;;;;;28.37;35.96;100664.41;10134001;29;20043;-75
2023/08/23 16:18:26;;;;;;;2.65;1.10;;;;;;;27.94;37.13;100666.25;10129147;29;20059;-76
2023/08/23 16:23:30;;;;;;;1.15;1.05;;;;;;;28.61;36.24;100666.19;10129649;29;20186;-77
2023/08/23 16:28:34;;;;;;;1.10;1.02;;;;;;;28.76;37.64;100662.94;10142775;28;20059;-75
2023/08/23 16:33:39;;;;;;;2.50;1.77;;;;;;;28.31;36.54;100657.06;10128564;29;20079;-77
2023/08/23 16:38:43;;;;;;;1.35;1.00;;;;;;;28.39;36.36;100649.28;10129723;29;20456;-77
2023/08/23 16:43:48;;;;;;;1.77;1.13;;;;;;;28.43;36.93;100653.22;10131570;28;20673;-77
2023/08/23 16:48:51;;;;;;;2.55;1.15;;;;;;;28.40;37.39;100656.47;10131219;29;20048;-75
2023/08/23 16:53:55;;;;;;;2.58;1.30;;;;;;;28.59;36.91;100661.97;10118081;28;20710;-77
2023/08/23 16:58:58;;;;;;;1.33;1.00;;;;;;;28.97;37.25;100652.41;10127854;28;21225;-78
2023/08/23 17:04:01;;;;;;;1.42;1.05;;;;;;;29.04;36.77;100642.88;10123561;29;20047;-78
2023/08/23 17:09:05;;;;;;;1.88;1.08;;;;;;;28.77;37.84;100648.06;10126264;29;20505;-77
2023/08/23 17:14:08;;;;;;;4.15;2.17;;;;;;;28.53;37.68;100646.34;10126409;29;20051;-77
2023/08/23 17:19:11;;;;;;;1.30;1.20;;;;;;;27.59;39.45;100636.56;10120264;29;20089;-78
2023/08/23 17:24:15;;;;;;;3.00;1.30;;;;;;;27.79;40.13;100641.81;10112906;28;20159;-74
2023/08/23 17:29:18;;;;;;;1.73;1.40;;;;;;;28.18;38.80;100636.84;10112243;29;20060;-75
2023/08/23 17:34:21;;;;;;;2.25;1.17;;;;;;;27.68;40.01;100639.00;10122578;29;20048;-76
2023/08/23 17:39:25;;;;;;;1.63;1.20;;;;;;;26.86;41.58;100642.00;10137211;29;20057;-77
2023/08/23 17:44:28;;;;;;;3.08;1.20;;;;;;;26.72;42.77;100639.31;10115244;28;20063;-77
2023/08/23 17:49:31;;;;;;;1.48;1.25;;;;;;;26.41;44.18;100633.84;10116906;29;20076;-74
2023/08/23 17:54:35;;;;;;;2.15;1.15;;;;;;;25.89;44.30;100642.22;10118552;29;20067;-76
2023/08/23 17:59:38;;;;;;;2.92;1.60;;;;;;;25.22;46.11;100643.47;10109365;29;20599;-75
2023/08/23 18:04:41;;;;;;;3.35;1.42;;;;;;;25.00;47.45;100651.09;10117254;29;20130;-76
2023/08/23 18:09:45;;;;;;;1.70;1.42;;;;;;;24.40;47.46;100657.41;10117182;29;20186;-76
2023/08/23 18:14:48;;;;;;;3.28;1.38;;;;;;;24.14;47.64;100649.13;10116469;28;20051;-75
2023/08/23 18:19:51;;;;;;;3.90;1.48;;;;;;;24.18;47.66;100648.47;10113973;29;20060;-76
2023/08/23 18:24:55;;;;;;;2.58;1.40;;;;;;;23.91;47.78;100639.31;10117873;29;20051;-76
2023/08/23 18:29:58;;;;;;;2.90;1.40;;;;;;;23.84;48.73;100646.72;10110236;29;20052;-76
2023/08/23 18:35:01;;;;;;;1.85;1.45;;;;;;;23.84;49.37;100649.44;10110430;29;20099;-77
2023/08/23 18:40:07;;;;;;;3.33;1.60;;;;;;;23.66;48.49;100645.31;10112818;29;20101;-76
2023/08/23 18:45:11;;;;;;;3.63;1.60;;;;;;;23.41;48.09;100650.47;10112638;29;20044;-76
2023/08/23 18:50:14;;;;;;;1.33;1.23;;;;;;;23.22;48.71;100645.72;10113060;29;20055;-76
2023/08/23 18:55:18;;;;;;;1.40;1.30;;;;;;;23.25;49.51;100649.97;10102967;29;20053;-76
2023/08/23 19:00:21;;;;;;;1.85;1.48;;;;;;;23.12;48.80;100650.72;10105632;29;20067;-76
2023/08/23 19:05:24;;;;;;;2.15;1.85;;;;;;;23.07;48.89;100653.19;10118638;29;20187;-76
2023/08/23 19:10:29;;;;;;;4.38;1.40;;;;;;;22.82;49.40;100650.03;10110481;28;20048;-77
2023/08/23 19:15:33;;;;;;;4.07;1.55;;;;;;;22.75;49.51;100656.31;10111642;28;20101;-77
2023/08/23 19:20:37;;;;;;;1.58;1.30;;;;;;;22.81;49.19;100659.31;10116600;29;20057;-76
2023/08/23 19:25:43;;;;;;;5.93;1.40;;;;;;;22.53;49.20;100666.44;10110744;29;20096;-76
2023/08/23 19:30:46;;;;;;;2.90;1.52;;;;;;;22.31;49.66;100673.78;10118882;29;20044;-75
2023/08/23 19:35:49;;;;;;;3.90;1.48;;;;;;;22.33;49.90;100679.91;10111932;28;20518;-76
2023/08/23 19:40:53;;;;;;;1.58;1.48;;;;;;;22.27;49.68;100679.81;10116224;28;20178;-76
2023/08/23 19:45:56;;;;;;;3.28;1.45;;;;;;;22.19;49.87;100680.81;10108469;29;21296;-76
2023/08/23 19:51:02;;;;;;;3.22;1.50;;;;;;;21.94;50.84;100677.59;10111902;29;20220;-75
2023/08/23 19:56:06;;;;;;;5.28;1.83;;;;;;;21.98;51.30;100686.25;10116362;29;20764;-75
2023/08/23 20:01:09;;;;;;;4.63;1.92;;;;;;;21.82;51.94;100677.22;10116632;29;20047;-75
2023/08/23 20:06:13;;;;;;;3.08;1.60;;;;;;;21.74;52.34;100680.03;10119528;28;20048;-76
2023/08/23 20:11:18;;;;;;;2.08;1.42;;;;;;;21.84;52.90;100677.88;10111441;28;20056;-75
2023/08/23 20:16:21;;;;;;;2.22;1.65;;;;;;;21.86;52.84;100680.44;10114980;29;20048;-76
2023/08/23 20:21:24;;;;;;;4.05;1.67;;;;;;;21.43;53.51;100682.97;10120601;29;20060;-75
2023/08/23 20:26:28;;;;;;;4.55;2.70;;;;;;;21.47;53.95;100670.63;10120218;29;20060;-75
2023/08/23 20:31:32;;;;;;;2.65;2.17;;;;;;;21.38;54.20;100679.97;10110646;28;20072;-75
2023/08/23 20:36:36;;;;;;;2.90;2.00;;;;;;;21.34;55.00;100678.66;10114625;28;20501;-76
2023/08/23 20:41:40;;;;;;;5.03;1.65;;;;;;;21.40;54.99;100681.47;10113068;28;20056;-76
2023/08/23 20:46:43;;;;;;;6.38;2.88;;;;;;;21.43;55.00;100674.78;10124710;28;21304;-77
2023/08/23 20:51:49;;;;;;;2.80;2.00;;;;;;;21.39;55.56;100677.06;10121996;28;20052;-75
2023/08/23 20:56:53;;;;;;;4.15;2.25;;;;;;;21.24;56.88;100678.91;10121469;29;20051;-74
2023/08/23 21:01:56;;;;;;;3.25;2.83;;;;;;;21.17;57.48;100681.56;10123262;28;20048;-76
2023/08/23 21:06:59;;;;;;;5.30;3.08;;;;;;;21.11;57.58;100682.28;10127437;29;20056;-75
2023/08/23 21:12:04;;;;;;;4.93;2.88;;;;;;;21.01;58.07;100685.28;10133643;29;20076;-76
2023/08/23 21:17:07;;;;;;;9.98;3.00;;;;;;;21.01;57.88;100668.88;10127963;29;20062;-77
2023/08/23 21:22:10;;;;;;;8.50;2.60;;;;;;;20.95;58.76;100677.84;10125458;29;20696;-76
2023/08/23 21:27:14;;;;;;;3.92;2.75;;;;;;;20.83;58.72;100662.91;10125004;28;20052;-76
2023/08/23 21:32:20;;;;;;;6.15;3.15;;;;;;;20.71;59.42;100667.97;10116184;28;20049;-76
2023/08/23 21:37:23;;;;;;;3.65;2.70;;;;;;;20.73;58.83;100659.59;10123705;28;20071;-76
2023/08/23 21:42:27;;;;;;;5.32;2.70;;;;;;;20.65;59.16;100662.38;10125939;29;20132;-77
2023/08/23 21:47:30;;;;;;;5.22;3.17;;;;;;;20.60;59.57;100660.22;10130139;29;20063;-76
2023/08/23 21:52:33;;;;;;;5.80;3.15;;;;;;;20.45;61.11;100665.63;10120305;29;20431;-75
2023/08/23 21:57:38;;;;;;;6.63;3.65;;;;;;;20.28;62.05;100675.78;10122812;28;20131;-73
2023/08/23 22:02:41;;;;;;;5.13;3.60;;;;;;;20.14;62.69;100665.66;10129825;28;20044;-76
2023/08/23 22:07:44;;;;;;;5.97;4.20;;;;;;;19.90;64.16;100663.91;10121922;29;20044;-75
2023/08/23 22:12:48;;;;;;;11.73;5.03;;;;;;;19.75;64.56;100661.09;10128062;29;20088;-77
2023/08/23 22:17:51;;;;;;;6.90;4.53;;;;;;;19.60;65.39;100660.13;10123199;29;20143;-77
2023/08/23 22:22:54;;;;;;;7.80;4.72;;;;;;;19.57;65.56;100655.06;10123492;28;20084;-76
2023/08/23 22:27:58;;;;;;;11.18;5.00;;;;;;;19.41;66.08;100642.31;10128845;28;20182;-76
2023/08/23 22:33:01;;;;;;;6.38;4.95;;;;;;;19.48;66.17;100645.19;10126724;28;20146;-76
2023/08/23 22:38:05;;;;;;;6.03;5.00;;;;;;;19.47;66.30;100657.94;10123664;29;20059;-75
2023/08/23 22:43:09;;;;;;;11.07;5.75;;;;;;;19.38;66.57;100661.72;10122429;29;20044;-75
2023/08/23 22:48:12;;;;;;;6.25;5.15;;;;;;;19.33;66.82;100654.06;10122367;29;20060;-75
2023/08/23 22:53:15;;;;;;;7.88;6.20;;;;;;;19.31;66.57;100661.59;10127874;28;20059;-76
2023/08/23 22:58:19;;;;;;;8.30;5.03;;;;;;;19.13;67.43;100647.34;10125701;28;20056;-75
2023/08/23 23:03:22;;;;;;;6.35;4.80;;;;;;;18.54;68.38;100677.47;10124989;29;20397;-75
2023/08/23 23:08:25;;;;;;;8.60;4.93;;;;;;;18.40;69.23;100686.28;10129086;29;20404;-76
2023/08/23 23:13:29;;;;;;;10.68;4.80;;;;;;;18.53;69.02;100681.22;10124567;28;20052;-77